Time;durP1;ratioP1;P1;durP2;ratioP2;P2;SDS_P1;SDS_P2;PMS_P1;PMS_P2;Temp;Humidity;BMP_temperature;BMP_pressure;BME280_temperature;BME280_humidity;BME280_pressure;Samples;Min_cycle;Max_cycle;Signal;HPM_P1;HPM_P2
2022/03/29 00:01:34;;;;;;;3.38;3.13;;;;;;;9.70;53.50;98400.25;4105452;28;20435;-58
2022/03/29 00:03:36;;;;;;;2.78;2.58;;;;;;;9.66;53.44;98394.47;4087981;28;20318;-56
2022/03/29 00:05:38;;;;;;;2.88;2.42;;;;;;;9.67;53.92;98396.13;4103500;28;20210;-55
2022/03/29 00:07:40;;;;;;;3.75;3.40;;;;;;;9.65;54.04;98395.53;4088129;28;20712;-55
2022/03/29 00:09:42;;;;;;;3.47;3.17;;;;;;;9.68;54.15;98388.75;4099021;28;20237;-57
2022/03/29 00:11:44;;;;;;;3.20;2.97;;;;;;;9.62;54.02;98393.28;4089803;28;20223;-56
2022/03/29 00:13:46;;;;;;;3.75;3.20;;;;;;;9.61;53.98;98390.81;4090293;28;20262;-56
2022/03/29 00:15:47;;;;;;;5.65;3.60;;;;;;;9.58;53.67;98385.84;4101853;28;23028;-58
2022/03/29 00:17:50;;;;;;;5.25;4.75;;;;;;;9.57;53.65;98384.19;4104721;28;20211;-56
2022/03/29 00:19:51;;;;;;;14.52;9.00;;;;;;;9.54;54.26;98384.69;4091259;28;20216;-56
2022/03/29 00:21:53;;;;;;;15.57;11.07;;;;;;;9.50;53.82;98383.50;4103211;28;20234;-55
2022/03/29 00:23:55;;;;;;;12.38;8.85;;;;;;;9.50;53.94;98383.50;4086729;28;20298;-58
2022/03/29 00:25:57;;;;;;;18.40;10.68;;;;;;;9.52;53.88;98386.81;4109274;28;20569;-56
2022/03/29 00:27:59;;;;;;;11.70;6.15;;;;;;;9.52;54.53;98378.63;4105263;28;20207;-56
2022/03/29 00:30:01;;;;;;;14.32;7.63;;;;;;;9.50;54.16;98378.06;4103250;28;20261;-58
2022/03/29 00:32:04;;;;;;;9.23;7.05;;;;;;;9.50;54.02;98369.84;4081607;28;20235;-55
2022/03/29 00:34:06;;;;;;;10.77;4.93;;;;;;;9.49;54.45;98365.47;4093965;28;20218;-57
2022/03/29 00:36:07;;;;;;;4.90;4.40;;;;;;;9.42;54.68;98359.34;4101734;28;20218;-57
2022/03/29 00:38:09;;;;;;;4.45;4.03;;;;;;;9.35;54.37;98359.50;4101708;28;20257;-57
2022/03/29 00:40:12;;;;;;;4.32;3.95;;;;;;;9.33;54.70;98369.00;4084789;28;20481;-59
2022/03/29 00:42:14;;;;;;;4.32;3.67;;;;;;;9.30;54.40;98356.69;4083569;28;20235;-57
2022/03/29 00:44:15;;;;;;;3.53;3.22;;;;;;;9.24;54.74;98352.22;4084887;28;20231;-58
2022/03/29 00:46:18;;;;;;;4.63;3.80;;;;;;;9.26;54.80;98349.22;4086128;28;20208;-58
2022/03/29 00:48:19;;;;;;;4.95;3.72;;;;;;;9.27;55.02;98351.69;4101487;28;20215;-58
2022/03/29 00:50:21;;;;;;;4.47;3.75;;;;;;;9.23;54.99;98349.72;4085323;28;20564;-59
2022/03/29 00:52:24;;;;;;;4.20;3.70;;;;;;;9.22;55.20;98348.06;4083832;28;20748;-57
2022/03/29 00:54:30;;;;;;;6.28;3.95;;;;;;;9.20;55.50;98350.19;4088143;28;20215;-58
2022/03/29 00:56:32;;;;;;;5.05;4.13;;;;;;;9.14;55.48;98345.75;4087440;28;20204;-58
2022/03/29 00:58:34;;;;;;;3.63;3.33;;;;;;;9.13;55.24;98344.06;4088331;28;20813;-58
2022/03/29 01:00:36;;;;;;;4.57;4.03;;;;;;;9.12;55.36;98331.47;4083828;28;20227;-58
2022/03/29 01:02:38;;;;;;;3.95;2.83;;;;;;;9.09;55.58;98349.19;4084568;28;20600;-57
2022/03/29 01:04:40;;;;;;;3.88;3.58;;;;;;;9.07;56.15;98331.38;4084577;28;20653;-56
2022/03/29 01:06:44;;;;;;;4.72;4.07;;;;;;;9.04;55.68;98337.34;4104681;28;20569;-57
2022/03/29 01:08:46;;;;;;;3.78;3.33;;;;;;;9.06;55.51;98338.75;4106958;28;20218;-58
2022/03/29 01:10:48;;;;;;;5.15;3.30;;;;;;;9.07;55.85;98334.94;4100077;28;20764;-58
2022/03/29 01:12:51;;;;;;;4.25;3.92;;;;;;;9.07;55.78;98328.66;4104322;28;20231;-58
2022/03/29 01:14:53;;;;;;;5.40;4.68;;;;;;;9.05;56.08;98334.38;4084070;28;20286;-57
2022/03/29 01:19:20;;;;;;;3.67;3.30;;;;;;;8.94;55.95;98329.78;4090528;28;20212;-58
2022/03/29 01:21:25;;;;;;;4.95;4.45;;;;;;;8.93;56.47;98332.75;4105466;28;20238;-57
2022/03/29 01:23:26;;;;;;;4.65;3.33;;;;;;;8.89;56.39;98329.69;4107535;28;20554;-57
2022/03/29 01:25:37;;;;;;;3.60;3.38;;;;;;;8.84;57.19;98324.16;4107042;28;20282;-56
2022/03/29 01:27:39;;;;;;;7.45;5.32;;;;;;;8.77;57.23;98325.38;4105974;28;20222;-59
2022/03/29 01:29:43;;;;;;;8.10;5.88;;;;;;;8.71;56.65;98324.44;4103888;28;20214;-59
2022/03/29 01:31:45;;;;;;;13.02;8.88;;;;;;;8.70;56.66;98321.94;4103774;28;20794;-58
2022/03/29 01:33:47;;;;;;;11.85;9.05;;;;;;;8.68;57.11;98319.47;4086683;28;20220;-59
2022/03/29 01:35:48;;;;;;;11.88;9.45;;;;;;;8.67;56.81;98312.34;4103903;28;20245;-57
2022/03/29 01:37:52;;;;;;;17.80;8.40;;;;;;;8.71;57.40;98319.00;4104023;28;20561;-58
2022/03/29 01:39:53;;;;;;;7.97;6.72;;;;;;;8.65;56.90;98309.06;4101384;28;20265;-57
2022/03/29 01:41:55;;;;;;;8.23;5.82;;;;;;;8.63;57.19;98311.16;4100107;28;20295;-57
2022/03/29 01:43:57;;;;;;;8.43;5.53;;;;;;;8.60;57.82;98299.91;4082062;28;20724;-57
2022/03/29 01:46:00;;;;;;;8.95;5.80;;;;;;;8.59;57.43;98309.19;4102129;28;20210;-57
2022/03/29 01:48:02;;;;;;;16.67;9.02;;;;;;;8.52;57.90;98297.59;4099530;28;20326;-57
2022/03/29 01:50:05;;;;;;;15.25;8.20;;;;;;;8.53;57.88;98299.22;4090121;28;20322;-57
2022/03/29 01:52:06;;;;;;;14.18;8.02;;;;;;;8.51;57.09;98295.94;4102011;28;20258;-56
2022/03/29 01:54:08;;;;;;;8.20;7.35;;;;;;;8.50;57.35;98294.28;4085479;28;20243;-59
2022/03/29 01:56:10;;;;;;;7.50;5.60;;;;;;;8.44;57.24;98295.25;4102241;28;20693;-59
2022/03/29 01:58:12;;;;;;;13.50;6.85;;;;;;;8.40;57.66;98294.91;4087365;28;20688;-56
2022/03/29 02:00:30;;;;;;;6.60;5.50;;;;;;;8.38;57.35;98291.59;4106155;28;20258;-56
2022/03/29 02:02:33;;;;;;;7.90;5.78;;;;;;;8.41;57.67;98287.56;4074935;29;21029;-57
2022/03/29 02:04:34;;;;;;;5.28;4.78;;;;;;;8.41;57.49;98285.66;4101957;28;21366;-57
2022/03/29 02:06:36;;;;;;;5.63;4.40;;;;;;;8.44;57.64;98287.06;4088864;28;20289;-58
2022/03/29 02:08:38;;;;;;;4.97;4.57;;;;;;;8.50;57.44;98283.38;4084427;28;20247;-57
2022/03/29 02:10:40;;;;;;;4.38;3.95;;;;;;;8.47;56.99;98281.13;4086275;28;20725;-59
2022/03/29 02:12:42;;;;;;;3.70;3.20;;;;;;;8.51;56.83;98279.56;4086352;28;20730;-56
2022/03/29 02:14:43;;;;;;;5.53;3.33;;;;;;;8.53;57.04;98277.41;4085593;28;20597;-59
2022/03/29 02:16:45;;;;;;;5.38;4.40;;;;;;;8.52;56.99;98282.06;4102856;28;20269;-58
2022/03/29 02:18:47;;;;;;;3.97;3.70;;;;;;;8.52;56.90;98278.50;4103232;28;20214;-58
2022/03/29 02:20:49;;;;;;;3.58;3.33;;;;;;;8.50;56.74;98278.72;4087661;28;20214;-58
2022/03/29 02:22:51;;;;;;;3.15;2.85;;;;;;;8.52;56.86;98281.22;4099191;28;20593;-60
2022/03/29 02:24:52;;;;;;;3.63;3.33;;;;;;;8.47;57.30;98279.22;4088774;28;20243;-59
2022/03/29 02:26:54;;;;;;;4.65;4.22;;;;;;;8.55;57.28;98275.31;4104858;28;20242;-57
2022/03/29 02:28:56;;;;;;;3.13;2.85;;;;;;;8.51;57.35;98274.13;4107818;28;20219;-58
2022/03/29 02:30:58;;;;;;;4.32;4.03;;;;;;;8.47;57.20;98267.47;4106702;28;20347;-59
2022/03/29 02:33:01;;;;;;;4.18;3.78;;;;;;;8.58;57.19;98261.16;4089926;28;20259;-58
2022/03/29 02:35:03;;;;;;;3.38;3.00;;;;;;;8.53;57.25;98255.59;4108230;28;20246;-59
2022/03/29 02:37:05;;;;;;;4.65;4.22;;;;;;;8.52;57.32;98260.25;4094134;28;20666;-58
2022/03/29 02:39:07;;;;;;;4.50;4.10;;;;;;;8.51;58.00;98258.59;4093642;28;20211;-57
2022/03/29 02:41:09;;;;;;;4.88;4.20;;;;;;;8.51;57.39;98252.31;4093311;28;20208;-56
2022/03/29 02:43:11;;;;;;;3.47;3.28;;;;;;;8.49;57.16;98254.44;4080526;29;20208;-57
2022/03/29 02:45:18;;;;;;;4.28;3.97;;;;;;;8.43;57.09;98255.41;4078327;29;20228;-57
2022/03/29 02:47:20;;;;;;;3.20;2.97;;;;;;;8.42;57.64;98253.78;4091380;28;20238;-58
2022/03/29 02:49:23;;;;;;;3.80;3.50;;;;;;;8.39;57.50;98254.25;4109489;28;20214;-58
2022/03/29 02:51:25;;;;;;;3.50;3.25;;;;;;;8.34;57.90;98251.44;4089292;28;20239;-58
2022/03/29 02:53:27;;;;;;;4.35;3.92;;;;;;;8.35;57.68;98253.91;4093952;28;20204;-58
2022/03/29 02:55:31;;;;;;;6.55;3.17;;;;;;;8.34;57.92;98252.25;4092614;28;20215;-58
2022/03/29 02:57:32;;;;;;;4.05;3.75;;;;;;;8.33;58.41;98238.84;4110137;28;20214;-59
2022/03/29 02:59:34;;;;;;;3.72;3.40;;;;;;;8.33;57.78;98238.84;4089838;28;20266;-57
2022/03/29 03:01:35;;;;;;;4.97;4.47;;;;;;;8.30;58.00;98236.63;4105367;28;20584;-57
2022/03/29 03:03:37;;;;;;;4.47;4.05;;;;;;;8.25;58.04;98231.06;4094420;28;20251;-56
2022/03/29 03:05:39;;;;;;;4.15;3.85;;;;;;;8.21;57.68;98229.91;4107183;28;20628;-58
2022/03/29 03:07:42;;;;;;;3.83;3.53;;;;;;;8.19;58.40;98227.41;4091575;28;20751;-59
2022/03/29 03:09:44;;;;;;;3.95;3.65;;;;;;;8.16;58.09;98224.31;4090777;28;20258;-57
2022/03/29 03:11:46;;;;;;;4.47;4.07;;;;;;;8.12;58.57;98220.41;4106027;28;20230;-59
2022/03/29 03:13:48;;;;;;;3.53;3.22;;;;;;;8.07;58.16;98215.69;4109502;28;20203;-57
2022/03/29 03:15:50;;;;;;;4.00;3.22;;;;;;;8.06;58.20;98222.22;4089289;28;20362;-58
2022/03/29 03:17:55;;;;;;;3.88;3.53;;;;;;;8.02;58.38;98226.47;4105896;28;20242;-60
2022/03/29 03:19:57;;;;;;;4.47;4.03;;;;;;;8.02;58.28;98214.75;4105570;28;20250;-56
2022/03/29 03:21:59;;;;;;;3.50;3.22;;;;;;;7.99;58.97;98223.41;4103946;28;20239;-57
2022/03/29 03:24:00;;;;;;;3.78;3.42;;;;;;;7.95;58.38;98219.53;4108192;28;20218;-59
2022/03/29 03:26:02;;;;;;;4.10;3.70;;;;;;;7.89;58.80;98217.75;4107784;28;20657;-56
2022/03/29 03:28:04;;;;;;;3.08;2.60;;;;;;;7.85;59.32;98219.28;4093689;28;20947;-56
2022/03/29 03:30:09;;;;;;;6.30;3.65;;;;;;;7.79;58.89;98212.91;4112180;28;20246;-57
2022/03/29 03:32:11;;;;;;;3.75;3.45;;;;;;;7.75;59.38;98208.19;4092375;28;20232;-58
2022/03/29 03:34:14;;;;;;;4.03;3.72;;;;;;;7.75;58.93;98213.66;4095825;28;20228;-58
2022/03/29 03:36:16;;;;;;;3.65;3.35;;;;;;;7.77;58.98;98206.91;4093351;28;20733;-55
2022/03/29 03:38:18;;;;;;;4.03;3.53;;;;;;;7.75;59.29;98210.91;4089421;28;20207;-56
2022/03/29 03:40:20;;;;;;;3.95;3.63;;;;;;;7.72;59.27;98212.22;4090633;28;20215;-55
2022/03/29 03:42:21;;;;;;;6.20;5.05;;;;;;;7.71;59.32;98209.72;4088262;28;20227;-57
2022/03/29 03:44:23;;;;;;;5.40;4.90;;;;;;;7.74;59.69;98203.78;4108735;28;20209;-55
2022/03/29 03:46:25;;;;;;;3.60;3.20;;;;;;;7.72;59.42;98201.34;4090302;28;20219;-57
2022/03/29 03:48:27;;;;;;;3.72;3.38;;;;;;;7.69;59.72;98203.72;4106713;28;20222;-56
2022/03/29 03:50:29;;;;;;;4.05;3.75;;;;;;;7.62;60.14;98197.56;4101380;28;20215;-56
2022/03/29 03:52:31;;;;;;;4.85;4.43;;;;;;;7.58;59.73;98199.09;4090513;28;20231;-58
2022/03/29 03:54:36;;;;;;;4.20;3.85;;;;;;;7.56;59.67;98190.34;4089618;28;20218;-56
2022/03/29 03:56:38;;;;;;;3.38;3.08;;;;;;;7.53;59.82;98186.19;4092638;28;20211;-56
2022/03/29 03:58:39;;;;;;;4.30;3.90;;;;;;;7.49;59.91;98186.94;4089384;28;20208;-56
2022/03/29 04:00:41;;;;;;;3.83;3.40;;;;;;;7.48;60.17;98185.28;4089141;28;20211;-56
2022/03/29 04:02:43;;;;;;;4.07;3.53;;;;;;;7.51;60.14;98184.78;4106777;28;20273;-59
2022/03/29 04:04:45;;;;;;;4.35;4.05;;;;;;;7.56;59.37;98182.19;4105118;28;20211;-58
2022/03/29 04:06:47;;;;;;;5.78;4.95;;;;;;;7.56;60.08;98193.88;4106124;28;20202;-57
2022/03/29 04:08:48;;;;;;;4.05;3.65;;;;;;;7.52;59.97;98175.53;4092786;28;20258;-58
2022/03/29 04:10:50;;;;;;;4.45;3.25;;;;;;;7.47;59.83;98176.25;4105343;28;20203;-57
2022/03/29 04:12:53;;;;;;;4.00;3.60;;;;;;;7.45;60.31;98177.56;4090921;28;20322;-59
2022/03/29 04:14:54;;;;;;;4.05;3.72;;;;;;;7.47;60.18;98178.16;4106638;28;20238;-59
2022/03/29 04:16:56;;;;;;;4.72;4.30;;;;;;;7.45;60.26;98180.28;4100764;28;20207;-60
2022/03/29 04:18:58;;;;;;;4.30;3.90;;;;;;;7.38;59.93;98174.16;4091905;28;20199;-59
2022/03/29 04:21:01;;;;;;;6.70;4.40;;;;;;;7.40;60.17;98166.56;4105696;28;20245;-59
2022/03/29 04:23:03;;;;;;;3.85;3.45;;;;;;;7.37;60.66;98165.13;4100324;28;21608;-58
2022/03/29 04:25:06;;;;;;;4.72;4.38;;;;;;;7.37;59.92;98161.59;4088345;28;20219;-57
2022/03/29 04:27:07;;;;;;;3.83;3.53;;;;;;;7.31;60.21;98162.56;4090358;28;20219;-60
2022/03/29 04:29:09;;;;;;;4.07;3.78;;;;;;;7.26;60.05;98159.72;4089689;28;20207;-59
2022/03/29 04:31:11;;;;;;;4.15;3.72;;;;;;;7.24;60.97;98157.25;4106708;28;20724;-58
2022/03/29 04:33:14;;;;;;;4.22;3.35;;;;;;;7.18;60.39;98158.19;4090729;28;20223;-58
2022/03/29 04:35:16;;;;;;;3.75;3.10;;;;;;;7.13;60.83;98160.78;4105870;28;20648;-58
2022/03/29 04:37:18;;;;;;;4.40;4.00;;;;;;;7.12;61.27;98164.59;4105284;28;20715;-57
2022/03/29 04:39:20;;;;;;;3.35;3.05;;;;;;;7.10;61.28;98158.53;4106483;28;20257;-58
2022/03/29 04:41:22;;;;;;;3.65;3.30;;;;;;;7.14;61.12;98167.88;4088908;28;20591;-59
2022/03/29 04:43:28;;;;;;;4.72;4.38;;;;;;;7.19;60.35;98159.00;4082299;28;20211;-57
2022/03/29 04:45:30;;;;;;;3.35;3.05;;;;;;;7.21;60.86;98159.63;4099550;28;20729;-57
2022/03/29 04:47:32;;;;;;;4.70;4.30;;;;;;;7.17;60.80;98163.88;4106186;28;20702;-59
2022/03/29 04:49:34;;;;;;;4.30;3.90;;;;;;;7.21;60.39;98167.78;4090351;28;20211;-59
2022/03/29 04:51:36;;;;;;;3.20;2.78;;;;;;;7.20;60.33;98155.22;4103771;28;20226;-58
2022/03/29 04:53:38;;;;;;;4.38;3.50;;;;;;;7.18;60.75;98151.91;4105269;28;20219;-60
2022/03/29 04:55:40;;;;;;;3.40;3.10;;;;;;;7.19;60.77;98161.72;4102462;28;20704;-58
2022/03/29 04:57:43;;;;;;;3.65;3.35;;;;;;;7.19;60.38;98153.56;4085104;28;20215;-58
2022/03/29 04:59:45;;;;;;;3.13;2.92;;;;;;;7.19;60.80;98142.69;4089951;28;20214;-58
2022/03/29 05:01:48;;;;;;;4.93;4.43;;;;;;;7.13;60.86;98159.94;4105977;28;20330;-59
2022/03/29 05:03:50;;;;;;;5.07;4.20;;;;;;;7.07;60.84;98150.00;4106021;28;20215;-57
2022/03/29 05:05:52;;;;;;;4.65;4.35;;;;;;;6.97;61.03;98152.50;4091694;28;20610;-57
2022/03/29 05:07:54;;;;;;;4.82;4.45;;;;;;;6.89;61.19;98148.25;4092622;28;20254;-57
2022/03/29 05:09:56;;;;;;;5.43;4.65;;;;;;;6.88;61.50;98145.78;4090277;28;20270;-58
2022/03/29 05:11:59;;;;;;;4.15;3.53;;;;;;;6.85;61.18;98141.63;4104364;28;20230;-60
2022/03/29 05:14:01;;;;;;;7.13;3.85;;;;;;;6.86;61.80;98142.44;4108485;28;20246;-57
2022/03/29 05:16:03;;;;;;;4.15;3.47;;;;;;;6.88;61.25;98145.78;4107892;28;20250;-57
2022/03/29 05:18:05;;;;;;;4.43;4.05;;;;;;;6.89;61.31;98150.16;4087839;28;20230;-56
2022/03/29 05:20:08;;;;;;;4.88;4.55;;;;;;;6.87;61.01;98142.22;4091100;28;20894;-56
2022/03/29 05:22:10;;;;;;;4.05;3.70;;;;;;;6.88;61.03;98145.78;4089856;28;20274;-57
2022/03/29 05:24:12;;;;;;;3.55;3.33;;;;;;;6.91;60.67;98134.41;4092179;28;20244;-57
2022/03/29 05:26:14;;;;;;;4.82;4.50;;;;;;;6.94;60.79;98139.38;4109098;28;20222;-57
2022/03/29 05:28:15;;;;;;;4.20;3.63;;;;;;;6.98;60.93;98140.56;4111955;28;20211;-60
2022/03/29 05:30:18;;;;;;;3.20;2.85;;;;;;;6.91;61.41;98145.28;4093514;28;20235;-54
2022/03/29 05:32:20;;;;;;;5.03;4.38;;;;;;;6.79;61.97;98144.47;4093967;28;20228;-55
2022/03/29 05:34:23;;;;;;;3.47;3.20;;;;;;;6.71;62.01;98140.22;4090413;28;20215;-54
2022/03/29 05:36:25;;;;;;;3.40;3.15;;;;;;;6.70;62.00;98133.09;4110916;28;20202;-55
2022/03/29 05:38:27;;;;;;;3.38;3.17;;;;;;;6.69;62.22;98131.44;4089318;28;20818;-53
2022/03/29 05:40:29;;;;;;;5.35;4.90;;;;;;;6.64;62.24;98139.50;4107856;28;20221;-55
2022/03/29 05:42:31;;;;;;;4.47;4.07;;;;;;;6.71;62.19;98145.66;4108504;28;20235;-55
2022/03/29 05:44:32;;;;;;;4.30;3.38;;;;;;;6.76;61.63;98136.78;4092308;28;20850;-56
2022/03/29 05:48:56;;;;;;;7.32;4.00;;;;;;;6.85;61.91;98146.25;4094202;28;20219;-54
2022/03/29 05:50:57;;;;;;;5.25;4.75;;;;;;;6.86;61.95;98143.28;4111083;28;20697;-54
2022/03/29 05:53:01;;;;;;;3.65;3.35;;;;;;;6.85;61.64;98140.81;4107719;28;20581;-53
2022/03/29 05:55:04;;;;;;;5.13;4.75;;;;;;;6.83;62.25;98142.94;4093663;28;20215;-54
2022/03/29 05:57:06;;;;;;;5.82;4.30;;;;;;;6.81;62.38;98150.47;4110205;28;20270;-53
2022/03/29 05:59:08;;;;;;;3.58;3.13;;;;;;;6.82;62.07;98152.97;4093202;28;20211;-54
2022/03/29 06:01:10;;;;;;;3.28;3.05;;;;;;;6.88;62.01;98156.66;4092122;28;20208;-54
2022/03/29 06:03:13;;;;;;;3.10;2.85;;;;;;;6.87;62.35;98160.41;4093439;28;20250;-55
2022/03/29 06:05:17;;;;;;;3.63;3.33;;;;;;;6.85;62.21;98157.97;4096991;28;20266;-54
2022/03/29 06:07:20;;;;;;;5.25;3.63;;;;;;;6.90;62.35;98154.53;4112470;28;20832;-53
2022/03/29 06:09:21;;;;;;;4.28;3.95;;;;;;;6.88;62.29;98148.50;4101256;28;20290;-54
2022/03/29 06:11:24;;;;;;;4.97;4.60;;;;;;;6.94;62.44;98155.69;4112258;28;20230;-55
2022/03/29 06:13:26;;;;;;;4.28;3.88;;;;;;;6.93;62.41;98149.44;4112808;28;20310;-54
2022/03/29 06:15:28;;;;;;;3.90;3.58;;;;;;;6.98;62.80;98151.44;4079350;29;20266;-54
2022/03/29 06:17:34;;;;;;;4.95;4.63;;;;;;;7.04;62.59;98153.22;4096950;28;20208;-54
2022/03/29 06:19:36;;;;;;;4.88;4.38;;;;;;;7.07;62.97;98152.75;4097396;28;20669;-54
2022/03/29 06:21:39;;;;;;;4.40;3.95;;;;;;;7.06;63.37;98151.94;4095055;28;20227;-55
2022/03/29 06:23:40;;;;;;;3.40;3.10;;;;;;;7.14;62.93;98157.00;4091094;28;20668;-53
2022/03/29 06:25:43;;;;;;;31.40;4.28;;;;;;;7.17;63.31;98155.72;4097823;28;20621;-54
2022/03/29 06:27:45;;;;;;;5.85;5.35;;;;;;;7.15;63.75;98155.13;4097795;28;20218;-53
2022/03/29 06:29:47;;;;;;;4.10;3.70;;;;;;;7.19;63.26;98161.72;4114120;28;20213;-54
2022/03/29 06:31:51;;;;;;;8.85;3.80;;;;;;;7.27;63.47;98166.81;4097710;28;20263;-55
2022/03/29 06:33:55;;;;;;;3.85;3.53;;;;;;;7.33;63.47;98163.13;4096848;28;20237;-54
2022/03/29 06:35:59;;;;;;;4.38;3.47;;;;;;;7.33;63.68;98163.97;4099931;28;20247;-54
2022/03/29 06:38:06;;;;;;;4.28;3.53;;;;;;;7.36;62.73;98159.97;4095965;28;20208;-57
2022/03/29 06:40:11;;;;;;;3.92;3.60;;;;;;;7.36;62.29;98160.78;4097618;28;20223;-55
2022/03/29 06:42:18;;;;;;;5.15;4.70;;;;;;;7.43;62.30;98166.09;4096798;28;20250;-53
2022/03/29 06:44:20;;;;;;;3.92;3.63;;;;;;;7.54;62.52;98162.50;4111901;28;20217;-54
2022/03/29 06:46:23;;;;;;;5.97;3.95;;;;;;;7.59;62.32;98170.81;4093435;28;20266;-53
2022/03/29 06:48:25;;;;;;;4.32;3.92;;;;;;;7.65;62.16;98169.84;4077135;29;20708;-55
2022/03/29 06:50:28;;;;;;;4.22;3.83;;;;;;;7.69;61.81;98157.41;4097918;28;20214;-54
2022/03/29 06:52:36;;;;;;;4.32;3.83;;;;;;;7.83;62.24;98162.31;4098776;28;20266;-54
2022/03/29 06:54:38;;;;;;;4.05;3.58;;;;;;;7.95;62.18;98165.03;4097113;28;20208;-54
2022/03/29 06:56:40;;;;;;;4.55;4.15;;;;;;;8.13;62.08;98156.66;4095590;28;20239;-55
2022/03/29 06:58:43;;;;;;;3.90;3.60;;;;;;;8.29;61.74;98164.09;4097517;28;20292;-54
2022/03/29 07:00:44;;;;;;;6.30;5.13;;;;;;;8.43;62.63;98154.53;4113062;28;20221;-53
2022/03/29 07:02:47;;;;;;;5.95;4.25;;;;;;;8.49;62.21;98157.09;4114275;28;20731;-54
2022/03/29 07:04:50;;;;;;;4.88;4.47;;;;;;;8.51;62.26;98149.53;4069978;28;20307;-55
2022/03/29 07:06:52;;;;;;;3.85;3.53;;;;;;;8.48;62.07;98154.66;4111854;28;20263;-53
2022/03/29 07:11:34;;;;;;;4.97;4.60;;;;;;;8.86;61.61;98157.47;4093311;28;20520;-54
2022/03/29 07:13:37;;;;;;;3.67;3.33;;;;;;;8.77;60.62;98150.78;4078412;29;20220;-54
2022/03/29 07:15:39;;;;;;;4.55;4.20;;;;;;;8.93;61.86;98147.22;4079803;28;20302;-54
2022/03/29 07:17:41;;;;;;;4.57;4.18;;;;;;;9.22;60.76;98151.50;4096577;28;20706;-53
2022/03/29 07:19:43;;;;;;;6.20;5.70;;;;;;;9.28;61.17;98151.31;4111655;28;20637;-53
2022/03/29 07:21:46;;;;;;;5.25;4.75;;;;;;;9.59;60.27;98152.56;4090505;28;20231;-53
2022/03/29 07:23:49;;;;;;;4.65;4.25;;;;;;;9.79;59.04;98150.09;4092898;28;20204;-54
2022/03/29 07:25:51;;;;;;;5.05;4.55;;;;;;;9.62;58.49;98147.44;4113160;28;20219;-53
2022/03/29 07:27:56;;;;;;;7.38;4.78;;;;;;;9.59;57.67;98147.94;4095527;28;20242;-54
2022/03/29 07:30:00;;;;;;;4.85;3.58;;;;;;;9.74;57.80;98155.53;4091057;28;20270;-54
2022/03/29 07:32:03;;;;;;;3.92;3.63;;;;;;;9.93;57.84;98149.47;4086345;28;20322;-53
2022/03/29 07:34:06;;;;;;;4.90;4.00;;;;;;;10.04;57.31;98155.94;4090572;28;20230;-54
2022/03/29 07:36:08;;;;;;;5.10;3.88;;;;;;;10.31;57.26;98151.31;4090609;28;20219;-52
2022/03/29 07:38:11;;;;;;;6.38;5.13;;;;;;;10.50;56.32;98144.41;4103159;28;20752;-53
2022/03/29 07:40:17;;;;;;;4.25;3.85;;;;;;;10.66;56.11;98137.97;4096645;28;20234;-54
2022/03/29 07:42:22;;;;;;;6.75;6.05;;;;;;;10.82;56.02;98138.69;4093094;28;20636;-52
2022/03/29 07:44:25;;;;;;;7.28;6.22;;;;;;;11.02;54.91;98132.53;4076719;28;20648;-53
2022/03/29 07:46:29;;;;;;;6.45;4.72;;;;;;;11.18;54.65;98134.31;4084914;28;20811;-55
2022/03/29 07:48:31;;;;;;;6.47;4.20;;;;;;;11.34;55.07;98130.59;4108605;28;20632;-52
2022/03/29 07:50:53;;;;;;;5.78;5.28;;;;;;;11.72;54.50;98133.84;4107432;28;20215;-53
2022/03/29 07:53:00;;;;;;;16.30;4.80;;;;;;;12.08;53.99;98137.56;4090954;28;20314;-54
2022/03/29 07:55:06;;;;;;;4.82;3.83;;;;;;;12.17;53.51;98139.53;4093713;28;20611;-53
2022/03/29 07:57:28;;;;;;;4.63;4.22;;;;;;;12.15;53.44;98138.16;4095353;28;20203;-53
2022/03/29 07:59:46;;;;;;;4.47;4.07;;;;;;;12.79;52.18;98136.66;4075443;29;20283;-54
2022/03/29 08:01:47;;;;;;;5.32;4.50;;;;;;;13.18;51.82;98133.09;4088990;28;20722;-52
2022/03/29 08:03:55;;;;;;;4.97;4.45;;;;;;;12.85;52.02;98133.63;4090409;28;20210;-52
2022/03/29 08:05:58;;;;;;;3.63;3.13;;;;;;;12.83;52.52;98135.81;4086146;28;20211;-52
2022/03/29 08:08:01;;;;;;;4.20;3.80;;;;;;;13.21;51.18;98123.47;4092611;28;20238;-54
2022/03/29 08:10:04;;;;;;;4.85;4.35;;;;;;;13.36;51.64;98127.03;4107443;28;20767;-55
2022/03/29 08:12:07;;;;;;;5.15;4.60;;;;;;;13.74;50.59;98126.41;4092078;28;20269;-52
2022/03/29 08:14:09;;;;;;;4.45;3.95;;;;;;;13.63;50.37;98124.78;4091598;28;20226;-51
2022/03/29 08:16:10;;;;;;;5.13;4.68;;;;;;;13.84;50.54;98131.84;4103560;28;20310;-53
2022/03/29 08:18:13;;;;;;;4.40;4.00;;;;;;;14.77;48.73;98125.34;4088060;28;20234;-52
2022/03/29 08:20:16;;;;;;;10.23;4.97;;;;;;;14.90;48.94;98124.69;4105766;28;20269;-52
2022/03/29 08:22:17;;;;;;;5.97;4.35;;;;;;;14.80;48.51;98124.78;4091107;28;20227;-52
2022/03/29 08:24:23;;;;;;;6.40;4.07;;;;;;;15.08;48.24;98121.25;4108131;28;20210;-51
2022/03/29 08:26:24;;;;;;;6.18;4.93;;;;;;;15.53;47.04;98115.34;4108117;28;20241;-51
2022/03/29 08:28:26;;;;;;;6.45;5.80;;;;;;;15.15;48.00;98119.00;4110147;28;20694;-51
2022/03/29 08:30:29;;;;;;;8.02;6.55;;;;;;;14.90;48.38;98121.94;4095263;28;20207;-52
2022/03/29 08:32:32;;;;;;;9.15;8.10;;;;;;;14.07;49.47;98119.41;4086042;28;20260;-52
2022/03/29 08:34:34;;;;;;;10.25;9.02;;;;;;;13.66;50.59;98117.91;4105245;28;20261;-51
2022/03/29 08:36:38;;;;;;;14.60;10.32;;;;;;;13.60;50.72;98119.84;4087962;28;20254;-52
2022/03/29 08:38:39;;;;;;;11.77;9.82;;;;;;;13.69;50.99;98112.66;4102855;28;20254;-51
2022/03/29 08:40:44;;;;;;;12.48;9.48;;;;;;;13.61;50.91;98113.25;4087524;28;20278;-52
2022/03/29 08:42:46;;;;;;;12.27;10.95;;;;;;;13.60;51.57;98108.84;4094423;28;20219;-51
2022/03/29 08:44:49;;;;;;;10.32;8.80;;;;;;;13.62;51.82;98106.63;4107491;28;20222;-51
2022/03/29 08:46:52;;;;;;;13.55;10.30;;;;;;;13.70;51.66;98108.81;4106561;28;20236;-51
2022/03/29 08:48:54;;;;;;;11.38;10.23;;;;;;;13.70;52.22;98102.50;4093766;28;20298;-52
2022/03/29 08:50:59;;;;;;;12.10;10.65;;;;;;;13.58;51.49;98108.28;4095081;28;20211;-51
2022/03/29 08:53:21;;;;;;;9.70;8.73;;;;;;;13.61;51.40;98105.00;4091668;28;20209;-50
2022/03/29 08:55:24;;;;;;;11.68;9.77;;;;;;;13.61;51.78;98101.41;4092488;28;20641;-52
2022/03/29 08:57:26;;;;;;;12.45;10.02;;;;;;;13.72;51.88;98097.53;4093988;28;20207;-52
2022/03/29 08:59:30;;;;;;;12.15;10.30;;;;;;;13.75;51.77;98095.06;4114775;28;20264;-52
2022/03/29 09:01:32;;;;;;;13.27;9.20;;;;;;;13.84;51.01;98093.34;4098488;28;20231;-53
2022/03/29 09:03:35;;;;;;;9.15;8.25;;;;;;;13.93;51.21;98088.94;4097001;28;20221;-52
2022/03/29 09:05:39;;;;;;;12.32;9.48;;;;;;;14.04;51.03;98093.25;4097611;28;20779;-51
2022/03/29 09:07:47;;;;;;;13.43;10.68;;;;;;;14.10;50.56;98091.34;4099556;28;20230;-53
2022/03/29 09:09:50;;;;;;;9.88;8.75;;;;;;;14.09;51.27;98090.50;4081152;29;20206;-51
2022/03/29 09:11:55;;;;;;;12.98;10.35;;;;;;;14.39;50.51;98095.88;4097385;28;20315;-53
2022/03/29 09:14:03;;;;;;;12.45;8.48;;;;;;;14.75;50.69;98094.53;4090090;28;20780;-52
2022/03/29 09:16:09;;;;;;;10.32;9.32;;;;;;;14.82;49.76;98080.44;4095417;28;20238;-52
2022/03/29 09:18:11;;;;;;;13.43;9.57;;;;;;;15.01;49.70;98087.69;4096596;28;20215;-53
2022/03/29 09:20:24;;;;;;;15.43;8.93;;;;;;;15.34;49.43;98086.88;4094029;28;20218;-51
2022/03/29 09:22:45;;;;;;;11.52;10.10;;;;;;;15.61;48.61;98078.84;4094901;28;20234;-51
2022/03/29 09:24:56;;;;;;;15.13;10.50;;;;;;;15.95;48.18;98082.31;4079084;29;20400;-51
2022/03/29 09:27:09;;;;;;;12.00;8.57;;;;;;;16.03;47.75;98078.88;4098279;28;20255;-51
2022/03/29 09:29:18;;;;;;;10.80;8.85;;;;;;;16.44;47.69;98065.38;4096123;28;20211;-53
2022/03/29 09:31:22;;;;;;;11.13;9.63;;;;;;;16.46;47.66;98066.75;4109700;28;20202;-53
2022/03/29 09:33:31;;;;;;;9.05;8.20;;;;;;;16.61;47.75;98072.03;4077814;28;20620;-52
2022/03/29 09:35:37;;;;;;;11.75;10.32;;;;;;;16.80;47.68;98061.78;4114239;28;20735;-53
2022/03/29 09:37:43;;;;;;;9.35;8.38;;;;;;;17.06;46.73;98060.25;4131540;23;20230;-54
2022/03/29 09:39:47;;;;;;;9.88;8.50;;;;;;;17.12;46.70;98061.78;4120763;28;20201;-53
2022/03/29 09:41:51;;;;;;;9.73;8.73;;;;;;;17.35;45.82;98055.28;4123722;28;20229;-52
2022/03/29 09:43:59;;;;;;;9.98;8.35;;;;;;;17.08;43.10;98052.44;4138327;28;20205;-51
2022/03/29 09:46:02;;;;;;;8.20;7.20;;;;;;;16.72;42.36;98045.88;4138765;28;20623;-50
2022/03/29 09:48:30;;;;;;;9.80;6.65;;;;;;;16.64;41.86;98043.78;4138461;28;20260;-51
2022/03/29 09:50:35;;;;;;;6.88;5.90;;;;;;;16.72;43.56;98043.13;4140272;28;20384;-51
2022/03/29 09:52:39;;;;;;;7.43;6.68;;;;;;;16.87;42.23;98044.78;4137115;28;20232;-52